sensor_id;sensor_type;location;lat;lon;timestamp;P1;durP1;ratioP1;P2;durP2;ratioP2
1957;SDS011;979;51.076;13.748;2023-07-13T00:01:23;15.10;;;14.30;;
1957;SDS011;979;51.076;13.748;2023-07-13T00:03:51;14.43;;;14.03;;
1957;SDS011;979;51.076;13.748;2023-07-13T00:06:25;14.90;;;14.50;;
1957;SDS011;979;51.076;13.748;2023-07-13T00:09:01;15.10;;;14.60;;
1957;SDS011;979;51.076;13.748;2023-07-13T00:11:33;15.33;;;14.77;;
1957;SDS011;979;51.076;13.748;2023-07-13T00:14:08;16.00;;;15.30;;
1957;SDS011;979;51.076;13.748;2023-07-13T00:16:38;15.83;;;15.33;;
1957;SDS011;979;51.076;13.748;2023-07-13T00:19:12;15.23;;;14.63;;
1957;SDS011;979;51.076;13.748;2023-07-13T00:21:42;15.50;;;15.00;;
1957;SDS011;979;51.076;13.748;2023-07-13T00:24:12;15.80;;;15.30;;
1957;SDS011;979;51.076;13.748;2023-07-13T00:26:42;14.90;;;14.40;;
1957;SDS011;979;51.076;13.748;2023-07-13T00:29:16;16.07;;;15.27;;
1957;SDS011;979;51.076;13.748;2023-07-13T00:31:46;15.90;;;15.20;;
1957;SDS011;979;51.076;13.748;2023-07-13T00:34:15;15.00;;;14.47;;
1957;SDS011;979;51.076;13.748;2023-07-13T00:36:47;15.37;;;14.77;;
1957;SDS011;979;51.076;13.748;2023-07-13T00:39:16;15.10;;;14.50;;
1957;SDS011;979;51.076;13.748;2023-07-13T00:41:44;15.30;;;14.80;;
1957;SDS011;979;51.076;13.748;2023-07-13T00:44:13;15.30;;;14.70;;
1957;SDS011;979;51.076;13.748;2023-07-13T00:46:43;15.80;;;15.30;;
1957;SDS011;979;51.076;13.748;2023-07-13T00:49:13;15.63;;;15.07;;
1957;SDS011;979;51.076;13.748;2023-07-13T00:51:49;15.17;;;14.67;;
1957;SDS011;979;51.076;13.748;2023-07-13T00:54:22;15.63;;;14.63;;
1957;SDS011;979;51.076;13.748;2023-07-13T00:56:54;15.23;;;14.73;;
1957;SDS011;979;51.076;13.748;2023-07-13T00:59:28;15.83;;;15.00;;
1957;SDS011;979;51.076;13.748;2023-07-13T01:01:57;15.17;;;14.70;;
1957;SDS011;979;51.076;13.748;2023-07-13T01:04:29;16.30;;;15.70;;
1957;SDS011;979;51.076;13.748;2023-07-13T01:07:01;15.13;;;14.63;;
1957;SDS011;979;51.076;13.748;2023-07-13T01:09:32;15.80;;;15.20;;
1957;SDS011;979;51.076;13.748;2023-07-13T01:12:00;15.87;;;15.27;;
1957;SDS011;979;51.076;13.748;2023-07-13T01:14:29;16.03;;;15.23;;
1957;SDS011;979;51.076;13.748;2023-07-13T01:16:58;16.43;;;15.83;;
1957;SDS011;979;51.076;13.748;2023-07-13T01:19:32;16.60;;;16.00;;
1957;SDS011;979;51.076;13.748;2023-07-13T01:22:05;16.50;;;15.90;;
1957;SDS011;979;51.076;13.748;2023-07-13T01:25:01;16.93;;;16.33;;
1957;SDS011;979;51.076;13.748;2023-07-13T01:27:29;16.80;;;16.23;;
1957;SDS011;979;51.076;13.748;2023-07-13T01:30:25;17.33;;;16.73;;
1957;SDS011;979;51.076;13.748;2023-07-13T01:33:21;16.87;;;16.27;;
1957;SDS011;979;51.076;13.748;2023-07-13T01:36:19;17.20;;;16.50;;
1957;SDS011;979;51.076;13.748;2023-07-13T01:39:15;16.60;;;16.03;;
1957;SDS011;979;51.076;13.748;2023-07-13T01:41:44;16.50;;;15.90;;
1957;SDS011;979;51.076;13.748;2023-07-13T01:44:37;16.97;;;16.27;;
1957;SDS011;979;51.076;13.748;2023-07-13T01:47:06;16.13;;;15.63;;
1957;SDS011;979;51.076;13.748;2023-07-13T01:49:35;17.50;;;16.83;;
1957;SDS011;979;51.076;13.748;2023-07-13T01:52:04;17.00;;;16.20;;
1957;SDS011;979;51.076;13.748;2023-07-13T01:54:34;16.73;;;16.20;;
1957;SDS011;979;51.076;13.748;2023-07-13T01:57:05;17.60;;;16.80;;
1957;SDS011;979;51.076;13.748;2023-07-13T01:59:33;16.97;;;16.33;;
1957;SDS011;979;51.076;13.748;2023-07-13T02:02:01;16.87;;;16.17;;
1957;SDS011;979;51.076;13.748;2023-07-13T02:04:32;16.43;;;15.90;;
1957;SDS011;979;51.076;13.748;2023-07-13T02:07:26;16.27;;;15.77;;
1957;SDS011;979;51.076;13.748;2023-07-13T02:09:56;16.20;;;15.60;;
1957;SDS011;979;51.076;13.748;2023-07-13T02:12:24;16.30;;;15.50;;
1957;SDS011;979;51.076;13.748;2023-07-13T02:14:55;15.83;;;15.23;;
1957;SDS011;979;51.076;13.748;2023-07-13T02:17:23;16.30;;;15.70;;
1957;SDS011;979;51.076;13.748;2023-07-13T02:19:51;16.93;;;16.30;;
1957;SDS011;979;51.076;13.748;2023-07-13T02:22:22;16.67;;;16.07;;
1957;SDS011;979;51.076;13.748;2023-07-13T02:24:51;16.90;;;16.13;;
1957;SDS011;979;51.076;13.748;2023-07-13T02:27:24;17.90;;;17.00;;
1957;SDS011;979;51.076;13.748;2023-07-13T02:30:01;17.90;;;17.10;;
1957;SDS011;979;51.076;13.748;2023-07-13T02:32:37;16.60;;;15.80;;
1957;SDS011;979;51.076;13.748;2023-07-13T02:35:16;16.50;;;15.90;;
1957;SDS011;979;51.076;13.748;2023-07-13T02:37:46;17.00;;;16.10;;
1957;SDS011;979;51.076;13.748;2023-07-13T02:40:16;17.10;;;16.40;;
1957;SDS011;979;51.076;13.748;2023-07-13T02:42:45;16.93;;;16.33;;
1957;SDS011;979;51.076;13.748;2023-07-13T02:45:14;17.07;;;16.30;;
1957;SDS011;979;51.076;13.748;2023-07-13T02:47:43;17.20;;;16.50;;
1957;SDS011;979;51.076;13.748;2023-07-13T02:50:15;17.03;;;16.33;;
1957;SDS011;979;51.076;13.748;2023-07-13T02:52:44;16.70;;;16.00;;
1957;SDS011;979;51.076;13.748;2023-07-13T02:55:20;16.43;;;15.83;;
1957;SDS011;979;51.076;13.748;2023-07-13T02:57:55;17.00;;;16.20;;
1957;SDS011;979;51.076;13.748;2023-07-13T03:00:24;17.47;;;16.70;;
1957;SDS011;979;51.076;13.748;2023-07-13T03:03:00;17.40;;;16.57;;
1957;SDS011;979;51.076;13.748;2023-07-13T03:05:31;16.80;;;16.00;;
1957;SDS011;979;51.076;13.748;2023-07-13T03:08:17;16.87;;;16.13;;
1957;SDS011;979;51.076;13.748;2023-07-13T03:10:58;16.90;;;16.10;;
1957;SDS011;979;51.076;13.748;2023-07-13T03:13:44;17.10;;;16.50;;
1957;SDS011;979;51.076;13.748;2023-07-13T03:16:18;17.40;;;16.70;;
1957;SDS011;979;51.076;13.748;2023-07-13T03:18:57;18.20;;;17.20;;
1957;SDS011;979;51.076;13.748;2023-07-13T03:21:49;18.53;;;17.30;;
1957;SDS011;979;51.076;13.748;2023-07-13T03:24:25;17.90;;;17.07;;
1957;SDS011;979;51.076;13.748;2023-07-13T03:27:01;17.63;;;16.70;;
1957;SDS011;979;51.076;13.748;2023-07-13T03:29:38;18.23;;;17.17;;
1957;SDS011;979;51.076;13.748;2023-07-13T03:32:06;17.63;;;16.63;;
1957;SDS011;979;51.076;13.748;2023-07-13T03:34:39;17.37;;;16.67;;
1957;SDS011;979;51.076;13.748;2023-07-13T03:37:22;17.20;;;16.30;;
1957;SDS011;979;51.076;13.748;2023-07-13T03:39:53;18.77;;;17.97;;
1957;SDS011;979;51.076;13.748;2023-07-13T03:42:22;17.87;;;17.17;;
1957;SDS011;979;51.076;13.748;2023-07-13T03:44:52;18.10;;;17.17;;
1957;SDS011;979;51.076;13.748;2023-07-13T03:47:21;18.50;;;17.60;;
1957;SDS011;979;51.076;13.748;2023-07-13T03:49:50;17.90;;;17.20;;
1957;SDS011;979;51.076;13.748;2023-07-13T03:52:20;18.03;;;17.17;;
1957;SDS011;979;51.076;13.748;2023-07-13T03:54:53;18.13;;;17.33;;
1957;SDS011;979;51.076;13.748;2023-07-13T03:57:37;18.17;;;17.40;;
1957;SDS011;979;51.076;13.748;2023-07-13T04:00:13;17.77;;;17.03;;
1957;SDS011;979;51.076;13.748;2023-07-13T04:02:45;18.83;;;17.80;;
1957;SDS011;979;51.076;13.748;2023-07-13T04:05:19;19.07;;;17.97;;
1957;SDS011;979;51.076;13.748;2023-07-13T04:07:49;18.20;;;17.13;;
1957;SDS011;979;51.076;13.748;2023-07-13T04:10:20;17.00;;;16.30;;
1957;SDS011;979;51.076;13.748;2023-07-13T04:13:02;17.60;;;16.90;;
1957;SDS011;979;51.076;13.748;2023-07-13T04:18:26;17.37;;;16.57;;
1957;SDS011;979;51.076;13.748;2023-07-13T04:20:59;18.33;;;17.53;;
1957;SDS011;979;51.076;13.748;2023-07-13T04:23:43;17.90;;;17.10;;
1957;SDS011;979;51.076;13.748;2023-07-13T04:26:12;17.83;;;17.07;;
1957;SDS011;979;51.076;13.748;2023-07-13T04:28:40;17.37;;;16.70;;
1957;SDS011;979;51.076;13.748;2023-07-13T04:31:16;17.10;;;16.30;;
1957;SDS011;979;51.076;13.748;2023-07-13T04:33:54;17.47;;;16.77;;
1957;SDS011;979;51.076;13.748;2023-07-13T04:36:31;17.10;;;16.27;;
1957;SDS011;979;51.076;13.748;2023-07-13T04:39:07;16.50;;;15.90;;
1957;SDS011;979;51.076;13.748;2023-07-13T04:41:36;17.23;;;16.43;;
1957;SDS011;979;51.076;13.748;2023-07-13T04:44:07;17.37;;;16.63;;
1957;SDS011;979;51.076;13.748;2023-07-13T04:46:37;16.90;;;16.17;;
1957;SDS011;979;51.076;13.748;2023-07-13T04:49:08;16.70;;;16.00;;
1957;SDS011;979;51.076;13.748;2023-07-13T04:51:36;17.10;;;16.20;;
1957;SDS011;979;51.076;13.748;2023-07-13T04:54:04;17.47;;;16.07;;
1957;SDS011;979;51.076;13.748;2023-07-13T04:56:34;16.80;;;16.10;;
1957;SDS011;979;51.076;13.748;2023-07-13T04:59:04;16.80;;;16.20;;
1957;SDS011;979;51.076;13.748;2023-07-13T05:01:33;16.47;;;15.77;;
1957;SDS011;979;51.076;13.748;2023-07-13T05:04:09;16.20;;;15.63;;
1957;SDS011;979;51.076;13.748;2023-07-13T05:06:45;17.37;;;16.77;;
1957;SDS011;979;51.076;13.748;2023-07-13T05:09:25;16.60;;;16.00;;
1957;SDS011;979;51.076;13.748;2023-07-13T05:12:02;16.50;;;15.80;;
1957;SDS011;979;51.076;13.748;2023-07-13T05:14:39;16.63;;;15.90;;
1957;SDS011;979;51.076;13.748;2023-07-13T05:17:10;17.10;;;16.47;;
1957;SDS011;979;51.076;13.748;2023-07-13T05:22:35;17.43;;;16.70;;
1957;SDS011;979;51.076;13.748;2023-07-13T05:25:11;17.43;;;16.73;;
1957;SDS011;979;51.076;13.748;2023-07-13T05:27:46;17.87;;;17.00;;
1957;SDS011;979;51.076;13.748;2023-07-13T05:30:24;16.93;;;16.33;;
1957;SDS011;979;51.076;13.748;2023-07-13T05:33:10;17.40;;;16.70;;
1957;SDS011;979;51.076;13.748;2023-07-13T05:35:48;17.70;;;17.10;;
1957;SDS011;979;51.076;13.748;2023-07-13T05:38:16;17.13;;;16.53;;
1957;SDS011;979;51.076;13.748;2023-07-13T05:40:44;16.70;;;15.57;;
1957;SDS011;979;51.076;13.748;2023-07-13T05:43:31;17.47;;;16.53;;
1957;SDS011;979;51.076;13.748;2023-07-13T05:46:06;18.50;;;17.60;;
1957;SDS011;979;51.076;13.748;2023-07-13T05:48:43;18.20;;;17.30;;
1957;SDS011;979;51.076;13.748;2023-07-13T05:51:16;18.83;;;17.90;;
1957;SDS011;979;51.076;13.748;2023-07-13T05:53:44;17.93;;;17.03;;
1957;SDS011;979;51.076;13.748;2023-07-13T05:56:22;17.90;;;17.10;;
1957;SDS011;979;51.076;13.748;2023-07-13T05:58:51;17.67;;;16.87;;
1957;SDS011;979;51.076;13.748;2023-07-13T06:01:26;17.73;;;17.00;;
1957;SDS011;979;51.076;13.748;2023-07-13T06:04:21;17.97;;;17.27;;
1957;SDS011;979;51.076;13.748;2023-07-13T06:07:04;17.83;;;17.07;;
1957;SDS011;979;51.076;13.748;2023-07-13T06:09:51;17.00;;;16.30;;
1957;SDS011;979;51.076;13.748;2023-07-13T06:12:27;17.27;;;16.63;;
1957;SDS011;979;51.076;13.748;2023-07-13T06:15:11;17.03;;;16.33;;
1957;SDS011;979;51.076;13.748;2023-07-13T06:17:46;17.37;;;16.73;;
1957;SDS011;979;51.076;13.748;2023-07-13T06:20:37;18.70;;;17.70;;
1957;SDS011;979;51.076;13.748;2023-07-13T06:23:23;17.87;;;17.17;;
1957;SDS011;979;51.076;13.748;2023-07-13T06:26:17;17.67;;;16.90;;
1957;SDS011;979;51.076;13.748;2023-07-13T06:29:17;18.33;;;17.50;;
1957;SDS011;979;51.076;13.748;2023-07-13T06:31:55;17.70;;;16.87;;
1957;SDS011;979;51.076;13.748;2023-07-13T06:34:44;17.90;;;17.00;;
1957;SDS011;979;51.076;13.748;2023-07-13T06:37:25;17.23;;;16.60;;
1957;SDS011;979;51.076;13.748;2023-07-13T06:40:16;18.00;;;17.20;;
1957;SDS011;979;51.076;13.748;2023-07-13T06:43:06;17.13;;;16.53;;
1957;SDS011;979;51.076;13.748;2023-07-13T06:45:56;17.60;;;16.70;;
1957;SDS011;979;51.076;13.748;2023-07-13T06:48:30;17.73;;;17.10;;
1957;SDS011;979;51.076;13.748;2023-07-13T06:50:58;19.20;;;18.20;;
1957;SDS011;979;51.076;13.748;2023-07-13T06:53:26;18.30;;;17.43;;
1957;SDS011;979;51.076;13.748;2023-07-13T06:56:00;18.00;;;16.83;;
1957;SDS011;979;51.076;13.748;2023-07-13T06:58:47;17.47;;;16.77;;
1957;SDS011;979;51.076;13.748;2023-07-13T07:01:30;18.70;;;17.90;;
1957;SDS011;979;51.076;13.748;2023-07-13T07:04:23;17.97;;;17.27;;
1957;SDS011;979;51.076;13.748;2023-07-13T07:06:54;17.43;;;16.63;;
1957;SDS011;979;51.076;13.748;2023-07-13T07:09:28;17.27;;;16.57;;
1957;SDS011;979;51.076;13.748;2023-07-13T07:16:19;19.47;;;18.40;;
1957;SDS011;979;51.076;13.748;2023-07-13T07:23:30;18.37;;;17.57;;
1957;SDS011;979;51.076;13.748;2023-07-13T07:26:26;20.87;;;19.53;;
1957;SDS011;979;51.076;13.748;2023-07-13T07:29:23;19.10;;;18.20;;
1957;SDS011;979;51.076;13.748;2023-07-13T07:32:00;18.90;;;17.90;;
1957;SDS011;979;51.076;13.748;2023-07-13T07:35:14;19.03;;;18.10;;
1957;SDS011;979;51.076;13.748;2023-07-13T07:37:46;18.40;;;17.50;;
1957;SDS011;979;51.076;13.748;2023-07-13T07:41:11;18.87;;;18.10;;
1957;SDS011;979;51.076;13.748;2023-07-13T07:44:09;19.53;;;18.10;;
1957;SDS011;979;51.076;13.748;2023-07-13T07:46:44;18.50;;;17.80;;
1957;SDS011;979;51.076;13.748;2023-07-13T07:49:27;18.23;;;17.40;;
1957;SDS011;979;51.076;13.748;2023-07-13T07:52:22;18.83;;;18.03;;
1957;SDS011;979;51.076;13.748;2023-07-13T07:55:07;19.03;;;18.17;;
1957;SDS011;979;51.076;13.748;2023-07-13T07:57:45;17.80;;;17.03;;
1957;SDS011;979;51.076;13.748;2023-07-13T08:00:30;17.97;;;17.17;;
1957;SDS011;979;51.076;13.748;2023-07-13T08:03:24;17.67;;;16.77;;
1957;SDS011;979;51.076;13.748;2023-07-13T08:06:17;17.00;;;16.50;;
1957;SDS011;979;51.076;13.748;2023-07-13T08:09:11;16.90;;;16.40;;
1957;SDS011;979;51.076;13.748;2023-07-13T08:11:48;17.40;;;16.60;;
1957;SDS011;979;51.076;13.748;2023-07-13T08:14:44;17.40;;;16.80;;
1957;SDS011;979;51.076;13.748;2023-07-13T08:17:56;18.03;;;17.33;;
1957;SDS011;979;51.076;13.748;2023-07-13T08:21:04;17.53;;;16.93;;
1957;SDS011;979;51.076;13.748;2023-07-13T08:23:35;17.90;;;17.27;;
1957;SDS011;979;51.076;13.748;2023-07-13T08:26:18;17.70;;;17.00;;
1957;SDS011;979;51.076;13.748;2023-07-13T08:29:03;17.37;;;16.67;;
1957;SDS011;979;51.076;13.748;2023-07-13T08:31:59;18.87;;;17.97;;
1957;SDS011;979;51.076;13.748;2023-07-13T08:34:51;17.90;;;17.10;;
1957;SDS011;979;51.076;13.748;2023-07-13T08:37:33;18.60;;;17.83;;
1957;SDS011;979;51.076;13.748;2023-07-13T08:40:16;17.23;;;16.63;;
1957;SDS011;979;51.076;13.748;2023-07-13T08:43:00;18.30;;;17.60;;
1957;SDS011;979;51.076;13.748;2023-07-13T08:46:15;17.50;;;16.83;;
1957;SDS011;979;51.076;13.748;2023-07-13T08:49:04;17.13;;;16.63;;
1957;SDS011;979;51.076;13.748;2023-07-13T08:55:34;18.47;;;17.53;;
1957;SDS011;979;51.076;13.748;2023-07-13T08:58:25;18.23;;;17.23;;
1957;SDS011;979;51.076;13.748;2023-07-13T09:00:59;17.77;;;16.57;;
1957;SDS011;979;51.076;13.748;2023-07-13T09:03:36;17.50;;;16.90;;
1957;SDS011;979;51.076;13.748;2023-07-13T09:06:10;17.77;;;16.90;;
1957;SDS011;979;51.076;13.748;2023-07-13T09:08:46;17.70;;;17.10;;
1957;SDS011;979;51.076;13.748;2023-07-13T09:11:33;17.63;;;16.90;;
1957;SDS011;979;51.076;13.748;2023-07-13T09:14:23;18.00;;;17.10;;
1957;SDS011;979;51.076;13.748;2023-07-13T09:17:01;18.53;;;17.70;;
1957;SDS011;979;51.076;13.748;2023-07-13T09:19:34;18.03;;;17.07;;
1957;SDS011;979;51.076;13.748;2023-07-13T09:22:06;17.97;;;17.27;;
1957;SDS011;979;51.076;13.748;2023-07-13T09:24:47;17.73;;;17.13;;
1957;SDS011;979;51.076;13.748;2023-07-13T09:27:49;17.03;;;16.50;;
1957;SDS011;979;51.076;13.748;2023-07-13T09:30:43;17.43;;;16.50;;
1957;SDS011;979;51.076;13.748;2023-07-13T09:33:31;17.60;;;16.90;;
1957;SDS011;979;51.076;13.748;2023-07-13T09:36:05;17.57;;;16.90;;
1957;SDS011;979;51.076;13.748;2023-07-13T09:38:46;16.97;;;16.07;;
1957;SDS011;979;51.076;13.748;2023-07-13T09:41:19;17.60;;;16.80;;
1957;SDS011;979;51.076;13.748;2023-07-13T09:44:11;17.23;;;16.63;;
1957;SDS011;979;51.076;13.748;2023-07-13T09:46:43;16.97;;;16.27;;
1957;SDS011;979;51.076;13.748;2023-07-13T09:49:15;16.50;;;15.90;;
1957;SDS011;979;51.076;13.748;2023-07-13T09:52:09;17.40;;;16.50;;
1957;SDS011;979;51.076;13.748;2023-07-13T09:54:56;17.03;;;16.23;;
1957;SDS011;979;51.076;13.748;2023-07-13T09:57:47;17.40;;;16.80;;
1957;SDS011;979;51.076;13.748;2023-07-13T10:00:38;17.67;;;17.00;;
1957;SDS011;979;51.076;13.748;2023-07-13T10:03:51;18.90;;;18.00;;
1957;SDS011;979;51.076;13.748;2023-07-13T10:06:40;16.47;;;15.77;;
1957;SDS011;979;51.076;13.748;2023-07-13T10:10:00;17.10;;;16.50;;
1957;SDS011;979;51.076;13.748;2023-07-13T10:12:42;17.43;;;16.83;;
1957;SDS011;979;51.076;13.748;2023-07-13T10:15:27;17.60;;;16.80;;
1957;SDS011;979;51.076;13.748;2023-07-13T10:18:08;17.97;;;17.17;;
1957;SDS011;979;51.076;13.748;2023-07-13T10:21:07;17.47;;;16.87;;
1957;SDS011;979;51.076;13.748;2023-07-13T10:24:10;17.53;;;16.93;;
1957;SDS011;979;51.076;13.748;2023-07-13T10:26:53;17.73;;;17.13;;
1957;SDS011;979;51.076;13.748;2023-07-13T10:29:46;17.23;;;16.50;;
1957;SDS011;979;51.076;13.748;2023-07-13T10:32:20;17.20;;;16.60;;
1957;SDS011;979;51.076;13.748;2023-07-13T10:34:53;18.40;;;17.50;;
1957;SDS011;979;51.076;13.748;2023-07-13T10:37:23;18.10;;;17.43;;
1957;SDS011;979;51.076;13.748;2023-07-13T10:39:55;17.90;;;17.20;;
1957;SDS011;979;51.076;13.748;2023-07-13T10:42:28;17.37;;;16.70;;
1957;SDS011;979;51.076;13.748;2023-07-13T10:45:00;17.03;;;16.43;;
1957;SDS011;979;51.076;13.748;2023-07-13T10:47:28;17.47;;;16.80;;
1957;SDS011;979;51.076;13.748;2023-07-13T10:50:00;17.97;;;17.27;;
1957;SDS011;979;51.076;13.748;2023-07-13T10:52:40;16.83;;;16.33;;
1957;SDS011;979;51.076;13.748;2023-07-13T10:58:12;17.57;;;16.90;;
1957;SDS011;979;51.076;13.748;2023-07-13T11:01:03;17.30;;;16.60;;
1957;SDS011;979;51.076;13.748;2023-07-13T11:03:50;17.70;;;17.00;;
1957;SDS011;979;51.076;13.748;2023-07-13T11:10:31;16.43;;;15.83;;
1957;SDS011;979;51.076;13.748;2023-07-13T11:13:56;16.33;;;15.83;;
1957;SDS011;979;51.076;13.748;2023-07-13T11:16:54;16.57;;;15.77;;
1957;SDS011;979;51.076;13.748;2023-07-13T11:19:45;16.63;;;16.03;;
1957;SDS011;979;51.076;13.748;2023-07-13T11:22:43;17.50;;;16.70;;
1957;SDS011;979;51.076;13.748;2023-07-13T11:26:01;16.70;;;16.13;;
1957;SDS011;979;51.076;13.748;2023-07-13T11:29:25;17.30;;;16.60;;
1957;SDS011;979;51.076;13.748;2023-07-13T11:32:46;16.50;;;16.00;;
1957;SDS011;979;51.076;13.748;2023-07-13T11:35:46;17.63;;;17.03;;
1957;SDS011;979;51.076;13.748;2023-07-13T11:38:48;17.60;;;16.80;;
1957;SDS011;979;51.076;13.748;2023-07-13T11:42:00;18.90;;;18.20;;
1957;SDS011;979;51.076;13.748;2023-07-13T11:45:39;17.40;;;16.83;;
1957;SDS011;979;51.076;13.748;2023-07-13T11:48:26;17.23;;;16.53;;
1957;SDS011;979;51.076;13.748;2023-07-13T11:51:13;17.90;;;17.10;;
1957;SDS011;979;51.076;13.748;2023-07-13T11:54:14;16.93;;;16.20;;
1957;SDS011;979;51.076;13.748;2023-07-13T11:56:52;16.67;;;16.07;;
1957;SDS011;979;51.076;13.748;2023-07-13T11:59:54;16.83;;;15.93;;
1957;SDS011;979;51.076;13.748;2023-07-13T12:02:47;16.70;;;16.10;;
1957;SDS011;979;51.076;13.748;2023-07-13T12:05:18;16.80;;;16.20;;
1957;SDS011;979;51.076;13.748;2023-07-13T12:07:50;16.90;;;16.30;;
1957;SDS011;979;51.076;13.748;2023-07-13T12:10:21;17.70;;;17.07;;
1957;SDS011;979;51.076;13.748;2023-07-13T12:12:55;17.63;;;16.70;;
1957;SDS011;979;51.076;13.748;2023-07-13T12:15:43;17.47;;;16.77;;
1957;SDS011;979;51.076;13.748;2023-07-13T12:18:21;18.60;;;17.90;;
1957;SDS011;979;51.076;13.748;2023-07-13T12:20:51;17.57;;;16.87;;
1957;SDS011;979;51.076;13.748;2023-07-13T12:23:34;17.43;;;16.83;;
1957;SDS011;979;51.076;13.748;2023-07-13T12:26:09;18.23;;;17.60;;
1957;SDS011;979;51.076;13.748;2023-07-13T12:28:43;18.07;;;17.37;;
1957;SDS011;979;51.076;13.748;2023-07-13T12:31:24;16.80;;;16.20;;
1957;SDS011;979;51.076;13.748;2023-07-13T12:33:58;16.30;;;15.80;;
1957;SDS011;979;51.076;13.748;2023-07-13T12:36:47;16.20;;;15.70;;
1957;SDS011;979;51.076;13.748;2023-07-13T12:39:33;16.10;;;15.60;;
1957;SDS011;979;51.076;13.748;2023-07-13T12:42:19;18.30;;;17.80;;
1957;SDS011;979;51.076;13.748;2023-07-13T12:45:11;17.03;;;15.80;;
1957;SDS011;979;51.076;13.748;2023-07-13T12:48:21;16.20;;;15.60;;
1957;SDS011;979;51.076;13.748;2023-07-13T12:51:43;16.60;;;16.10;;
1957;SDS011;979;51.076;13.748;2023-07-13T12:57:19;17.63;;;17.00;;
1957;SDS011;979;51.076;13.748;2023-07-13T12:59:51;17.50;;;16.90;;
1957;SDS011;979;51.076;13.748;2023-07-13T13:06:03;17.43;;;16.83;;
1957;SDS011;979;51.076;13.748;2023-07-13T13:08:35;17.70;;;17.10;;
1957;SDS011;979;51.076;13.748;2023-07-13T13:11:07;16.10;;;15.60;;
1957;SDS011;979;51.076;13.748;2023-07-13T13:13:43;16.50;;;16.00;;
1957;SDS011;979;51.076;13.748;2023-07-13T13:19:35;16.03;;;15.53;;
1957;SDS011;979;51.076;13.748;2023-07-13T13:22:08;16.50;;;15.80;;
1957;SDS011;979;51.076;13.748;2023-07-13T13:24:40;15.60;;;15.17;;
1957;SDS011;979;51.076;13.748;2023-07-13T13:27:24;16.30;;;15.70;;
1957;SDS011;979;51.076;13.748;2023-07-13T13:30:55;16.17;;;15.47;;
1957;SDS011;979;51.076;13.748;2023-07-13T13:33:18;15.37;;;14.97;;
1957;SDS011;979;51.076;13.748;2023-07-13T13:35:50;16.83;;;16.13;;
1957;SDS011;979;51.076;13.748;2023-07-13T13:38:25;16.23;;;15.63;;
1957;SDS011;979;51.076;13.748;2023-07-13T13:40:59;17.10;;;16.50;;
1957;SDS011;979;51.076;13.748;2023-07-13T13:43:35;15.80;;;15.30;;
1957;SDS011;979;51.076;13.748;2023-07-13T13:46:13;15.70;;;14.97;;
1957;SDS011;979;51.076;13.748;2023-07-13T13:48:44;16.00;;;15.50;;
1957;SDS011;979;51.076;13.748;2023-07-13T13:51:31;15.20;;;14.70;;
1957;SDS011;979;51.076;13.748;2023-07-13T13:54:20;15.10;;;14.60;;
1957;SDS011;979;51.076;13.748;2023-07-13T14:13:43;15.77;;;15.07;;
1957;SDS011;979;51.076;13.748;2023-07-13T14:16:28;15.53;;;15.03;;
1957;SDS011;979;51.076;13.748;2023-07-13T14:19:37;15.30;;;14.80;;
1957;SDS011;979;51.076;13.748;2023-07-13T14:22:31;15.17;;;14.77;;
1957;SDS011;979;51.076;13.748;2023-07-13T14:25:11;16.03;;;15.43;;
1957;SDS011;979;51.076;13.748;2023-07-13T14:28:23;15.00;;;14.50;;
1957;SDS011;979;51.076;13.748;2023-07-13T14:31:29;15.40;;;14.90;;
1957;SDS011;979;51.076;13.748;2023-07-13T14:34:27;15.60;;;14.97;;
1957;SDS011;979;51.076;13.748;2023-07-13T14:37:25;16.13;;;15.37;;
1957;SDS011;979;51.076;13.748;2023-07-13T14:40:24;15.47;;;15.07;;
1957;SDS011;979;51.076;13.748;2023-07-13T14:43:40;14.17;;;13.77;;
1957;SDS011;979;51.076;13.748;2023-07-13T15:39:43;15.40;;;15.00;;
1957;SDS011;979;51.076;13.748;2023-07-13T15:42:14;16.27;;;15.37;;
1957;SDS011;979;51.076;13.748;2023-07-13T15:48:50;16.30;;;15.70;;
1957;SDS011;979;51.076;13.748;2023-07-13T15:58:52;16.63;;;16.13;;
1957;SDS011;979;51.076;13.748;2023-07-13T16:01:47;15.53;;;15.13;;
1957;SDS011;979;51.076;13.748;2023-07-13T16:08:52;16.33;;;15.33;;
1957;SDS011;979;51.076;13.748;2023-07-13T16:16:48;16.13;;;15.53;;
1957;SDS011;979;51.076;13.748;2023-07-13T16:19:25;15.47;;;15.07;;
1957;SDS011;979;51.076;13.748;2023-07-13T16:21:59;15.47;;;14.87;;
1957;SDS011;979;51.076;13.748;2023-07-13T16:24:31;15.70;;;15.30;;
1957;SDS011;979;51.076;13.748;2023-07-13T16:27:00;16.20;;;15.60;;
1957;SDS011;979;51.076;13.748;2023-07-13T16:29:31;14.70;;;14.30;;
1957;SDS011;979;51.076;13.748;2023-07-13T16:32:02;16.30;;;15.77;;
1957;SDS011;979;51.076;13.748;2023-07-13T16:34:39;16.37;;;15.80;;
1957;SDS011;979;51.076;13.748;2023-07-13T16:37:13;16.50;;;16.00;;
1957;SDS011;979;51.076;13.748;2023-07-13T16:39:46;16.40;;;15.80;;
1957;SDS011;979;51.076;13.748;2023-07-13T16:42:26;16.30;;;15.50;;
1957;SDS011;979;51.076;13.748;2023-07-13T16:44:58;16.23;;;15.60;;
1957;SDS011;979;51.076;13.748;2023-07-13T16:47:43;15.80;;;15.20;;
1957;SDS011;979;51.076;13.748;2023-07-13T16:50:14;16.90;;;16.30;;
1957;SDS011;979;51.076;13.748;2023-07-13T16:52:43;16.30;;;15.63;;
1957;SDS011;979;51.076;13.748;2023-07-13T16:55:12;16.70;;;15.80;;
1957;SDS011;979;51.076;13.748;2023-07-13T16:57:44;17.37;;;16.67;;
1957;SDS011;979;51.076;13.748;2023-07-13T17:00:21;17.40;;;16.57;;
1957;SDS011;979;51.076;13.748;2023-07-13T17:02:56;17.03;;;16.23;;
1957;SDS011;979;51.076;13.748;2023-07-13T17:05:31;16.63;;;15.93;;
1957;SDS011;979;51.076;13.748;2023-07-13T17:08:11;16.53;;;15.93;;
1957;SDS011;979;51.076;13.748;2023-07-13T17:10:47;16.87;;;16.20;;
1957;SDS011;979;51.076;13.748;2023-07-13T17:13:17;16.70;;;16.10;;
1957;SDS011;979;51.076;13.748;2023-07-13T17:15:47;16.17;;;15.60;;
1957;SDS011;979;51.076;13.748;2023-07-13T17:18:24;16.43;;;15.90;;
1957;SDS011;979;51.076;13.748;2023-07-13T17:20:56;17.03;;;16.43;;
1957;SDS011;979;51.076;13.748;2023-07-13T17:23:25;16.43;;;15.80;;
1957;SDS011;979;51.076;13.748;2023-07-13T17:25:56;17.20;;;16.53;;
1957;SDS011;979;51.076;13.748;2023-07-13T17:28:25;16.43;;;15.87;;
1957;SDS011;979;51.076;13.748;2023-07-13T17:30:59;15.97;;;15.47;;
1957;SDS011;979;51.076;13.748;2023-07-13T17:33:33;17.73;;;17.03;;
1957;SDS011;979;51.076;13.748;2023-07-13T17:36:04;15.50;;;15.00;;
1957;SDS011;979;51.076;13.748;2023-07-13T17:38:35;15.70;;;15.20;;
1957;SDS011;979;51.076;13.748;2023-07-13T17:41:14;14.40;;;13.60;;
1957;SDS011;979;51.076;13.748;2023-07-13T17:43:56;15.03;;;14.37;;
1957;SDS011;979;51.076;13.748;2023-07-13T17:47:07;14.73;;;14.33;;
1957;SDS011;979;51.076;13.748;2023-07-13T17:50:18;15.60;;;15.10;;
1957;SDS011;979;51.076;13.748;2023-07-13T17:53:11;14.17;;;13.67;;
1957;SDS011;979;51.076;13.748;2023-07-13T17:55:49;15.27;;;14.77;;
1957;SDS011;979;51.076;13.748;2023-07-13T17:58:18;14.63;;;14.10;;
1957;SDS011;979;51.076;13.748;2023-07-13T18:00:51;15.30;;;14.80;;
1957;SDS011;979;51.076;13.748;2023-07-13T18:03:30;14.40;;;14.00;;
1957;SDS011;979;51.076;13.748;2023-07-13T18:06:04;15.00;;;14.50;;
1957;SDS011;979;51.076;13.748;2023-07-13T18:08:49;15.13;;;14.63;;
1957;SDS011;979;51.076;13.748;2023-07-13T18:11:23;14.60;;;14.10;;
1957;SDS011;979;51.076;13.748;2023-07-13T18:13:59;14.17;;;13.43;;